createdAt,value
2019-04-05T00:01:24.398Z,96.00
2019-04-05T00:03:52.923Z,96.20
2019-04-05T00:06:21.359Z,96.40
2019-04-05T00:08:49.807Z,96.60
2019-04-05T00:11:18.678Z,96.80
2019-04-05T00:13:47.189Z,96.90
2019-04-05T00:16:15.660Z,97.00
2019-04-05T00:18:44.124Z,97.00
2019-04-05T00:21:12.561Z,97.00
2019-04-05T00:23:41.014Z,97.00
2019-04-05T00:26:09.843Z,97.00
2019-04-05T00:28:38.313Z,97.00
2019-04-05T00:31:06.751Z,97.00
2019-04-05T00:33:35.200Z,96.90
2019-04-05T00:36:03.958Z,96.90
2019-04-05T00:38:32.504Z,96.80
2019-04-05T00:41:01.019Z,96.80
2019-04-05T00:43:29.492Z,96.60
2019-04-05T00:45:57.914Z,96.50
2019-04-05T00:48:26.374Z,96.50
2019-04-05T00:50:54.814Z,96.50
2019-04-05T00:53:23.253Z,96.60
2019-04-05T00:55:51.754Z,96.60
2019-04-05T00:58:20.214Z,96.70
2019-04-05T01:00:48.689Z,96.70
2019-04-05T01:03:17.138Z,96.50
2019-04-05T01:05:45.568Z,96.40
2019-04-05T01:08:14.010Z,96.40
2019-04-05T01:10:42.464Z,96.40
2019-04-05T01:13:10.902Z,96.40
2019-04-05T01:15:40.996Z,96.30
2019-04-05T01:18:10.156Z,96.20
2019-04-05T01:20:42.011Z,96.00
2019-04-05T01:23:11.610Z,96.00
2019-04-05T01:25:41.197Z,95.90
2019-04-05T01:28:10.783Z,95.80
2019-04-05T01:30:39.246Z,95.70
2019-04-05T01:33:07.760Z,95.70
2019-04-05T01:35:36.192Z,95.70
2019-04-05T01:38:05.086Z,95.80
2019-04-05T01:40:36.355Z,95.70
2019-04-05T01:43:05.351Z,95.60
2019-04-05T01:45:34.102Z,95.40
2019-04-05T01:48:02.605Z,95.30
2019-04-05T01:50:31.452Z,95.30
2019-04-05T01:53:00.116Z,95.30
2019-04-05T01:55:29.246Z,95.30
2019-04-05T01:57:58.163Z,95.40
2019-04-05T02:00:26.622Z,95.40
2019-04-05T02:02:55.144Z,95.60
2019-04-05T02:05:23.895Z,95.90
2019-04-05T02:07:52.411Z,96.00
2019-04-05T02:10:21.319Z,96.10
2019-04-05T02:12:49.760Z,96.20
2019-04-05T02:15:24.021Z,96.30
2019-04-05T02:17:52.540Z,96.30
2019-04-05T02:20:21.553Z,96.30
2019-04-05T02:22:50.155Z,96.40
2019-04-05T02:25:19.144Z,96.30
2019-04-05T02:27:47.864Z,96.20
2019-04-05T02:30:16.900Z,96.10
2019-04-05T02:32:45.732Z,96.10
2019-04-05T02:35:14.850Z,96.10
2019-04-05T02:37:43.462Z,96.00
2019-04-05T02:40:14.759Z,96.00
2019-04-05T02:42:46.319Z,96.00
2019-04-05T02:45:16.996Z,96.00
2019-04-05T02:47:57.422Z,95.80
2019-04-05T02:50:29.154Z,95.70
2019-04-05T02:53:00.739Z,95.80
2019-04-05T02:55:30.570Z,95.80
2019-04-05T02:58:01.632Z,95.70
2019-04-05T03:00:32.035Z,95.80
2019-04-05T03:03:01.606Z,95.80
2019-04-05T03:05:30.199Z,95.90
2019-04-05T03:07:58.718Z,96.00
2019-04-05T03:10:50.863Z,96.00
2019-04-05T03:13:19.780Z,96.10
2019-04-05T03:15:48.323Z,95.90
2019-04-05T03:18:17.385Z,95.90
2019-04-05T03:20:46.115Z,96.00
2019-04-05T03:23:15.410Z,96.10
2019-04-05T03:25:48.055Z,96.20
2019-04-05T03:28:15.200Z,96.30
2019-04-05T03:30:44.093Z,96.40
2019-04-05T03:33:12.697Z,96.60
2019-04-05T03:35:42.057Z,96.70
2019-04-05T03:38:10.567Z,96.80
2019-04-05T03:40:39.985Z,96.90
2019-04-05T03:43:08.794Z,96.90
2019-04-05T03:45:37.722Z,97.00
2019-04-05T03:48:06.145Z,97.00
2019-04-05T03:50:34.960Z,96.90
2019-04-05T03:53:04.172Z,96.90
2019-04-05T03:55:32.910Z,96.90
2019-04-05T03:58:01.719Z,97.00
2019-04-05T04:00:30.483Z,97.10
2019-04-05T04:02:59.447Z,97.20
2019-04-05T04:05:28.395Z,97.20
2019-04-05T04:07:57.356Z,97.20
2019-04-05T04:10:28.037Z,97.20
2019-04-05T04:12:56.967Z,97.30
2019-04-05T04:15:26.150Z,97.20
2019-04-05T04:17:55.462Z,97.20
2019-04-05T04:20:46.632Z,97.10
2019-04-05T04:23:15.662Z,97.00
2019-04-05T04:25:44.594Z,97.10
2019-04-05T04:28:13.941Z,97.10
2019-04-05T04:30:43.010Z,97.10
2019-04-05T04:33:12.526Z,97.10
2019-04-05T04:35:41.718Z,97.10
2019-04-05T04:38:10.310Z,97.20
2019-04-05T04:40:38.892Z,97.40
2019-04-05T04:43:07.894Z,97.60
2019-04-05T04:45:36.419Z,97.50
2019-04-05T04:48:05.028Z,97.60
2019-04-05T04:50:34.474Z,97.70
2019-04-05T04:53:03.333Z,97.70
2019-04-05T04:55:31.846Z,97.70
2019-04-05T04:58:00.571Z,97.60
2019-04-05T05:00:29.087Z,97.50
2019-04-05T05:02:57.847Z,97.40
2019-04-05T05:05:27.239Z,97.40
2019-04-05T05:07:56.223Z,97.40
2019-04-05T05:10:24.809Z,97.40
2019-04-05T05:12:53.925Z,97.40
2019-04-05T05:15:22.359Z,97.40
2019-04-05T05:17:58.513Z,97.40
2019-04-05T05:20:21.259Z,97.20
2019-04-05T05:22:49.783Z,97.20
2019-04-05T05:25:18.366Z,97.10
2019-04-05T05:27:46.990Z,97.00
2019-04-05T05:30:15.676Z,97.00
2019-04-05T05:32:44.312Z,97.10
2019-04-05T05:35:12.861Z,97.20
2019-04-05T05:37:41.885Z,97.20
2019-04-05T05:40:11.377Z,97.30
2019-04-05T05:42:40.167Z,97.40
2019-04-05T05:45:09.676Z,97.40
2019-04-05T05:47:50.742Z,97.40
2019-04-05T05:50:08.875Z,97.30
2019-04-05T05:52:37.312Z,97.30
2019-04-05T05:55:06.678Z,97.20
2019-04-05T05:57:35.119Z,97.10
2019-04-05T06:00:05.763Z,97.10
2019-04-05T06:02:34.248Z,97.00
2019-04-05T06:05:02.765Z,96.90
2019-04-05T06:07:31.237Z,96.90
2019-04-05T06:09:59.722Z,96.70
2019-04-05T06:12:28.192Z,96.50
2019-04-05T06:14:56.637Z,96.40
2019-04-05T06:17:25.075Z,96.40
2019-04-05T06:19:53.527Z,96.40
2019-04-05T06:22:21.993Z,96.40
2019-04-05T06:24:50.434Z,96.40
2019-04-05T06:27:18.957Z,96.30
2019-04-05T06:29:47.442Z,96.30
2019-04-05T06:32:15.898Z,96.10
2019-04-05T06:34:44.693Z,95.80
2019-04-05T06:37:13.119Z,95.50
2019-04-05T06:39:41.590Z,95.20
2019-04-05T06:42:10.041Z,95.00
2019-04-05T06:44:38.818Z,94.60
2019-04-05T06:47:07.263Z,94.50
2019-04-05T06:49:35.720Z,94.30
2019-04-05T06:52:04.241Z,94.00
2019-04-05T06:54:32.759Z,93.80
2019-04-05T06:57:01.235Z,93.50
2019-04-05T06:59:29.684Z,93.20
2019-04-05T07:01:58.112Z,93.20
2019-04-05T07:04:26.962Z,93.30
2019-04-05T07:06:55.759Z,93.20
2019-04-05T07:09:24.211Z,93.10
2019-04-05T07:11:52.652Z,92.90
2019-04-05T07:14:21.420Z,92.20
2019-04-05T07:16:50.179Z,92.00
2019-04-05T07:19:18.961Z,92.00
2019-04-05T07:21:47.418Z,91.80
2019-04-05T07:24:15.950Z,91.50
2019-04-05T07:26:44.410Z,91.00
2019-04-05T07:29:17.115Z,90.80
2019-04-05T07:31:45.577Z,90.20
2019-04-05T07:34:14.029Z,89.90
2019-04-05T07:36:42.470Z,89.20
2019-04-05T07:39:10.917Z,88.80
2019-04-05T07:41:39.373Z,88.80
2019-04-05T07:44:07.841Z,88.90
2019-04-05T07:46:36.274Z,88.90
2019-04-05T07:49:04.731Z,88.50
2019-04-05T07:51:33.206Z,86.00
2019-04-05T07:54:01.988Z,86.50
2019-04-05T07:56:30.452Z,86.90
2019-04-05T07:58:58.934Z,87.30
2019-04-05T08:01:27.741Z,87.60
2019-04-05T08:03:58.106Z,87.80
2019-04-05T08:06:28.172Z,87.90
2019-04-05T08:09:02.179Z,86.70
2019-04-05T08:11:30.729Z,86.00
2019-04-05T08:14:01.322Z,86.40
2019-04-05T08:16:30.406Z,86.80
2019-04-05T08:18:58.964Z,86.90
2019-04-05T08:21:27.959Z,86.60
2019-04-05T08:23:56.576Z,86.00
2019-04-05T08:26:25.115Z,85.60
2019-04-05T08:28:53.940Z,85.20
2019-04-05T08:31:22.735Z,84.60
2019-04-05T08:33:51.731Z,84.30
2019-04-05T08:36:20.300Z,84.30
2019-04-05T08:38:48.745Z,84.50
2019-04-05T08:41:17.665Z,84.00
2019-04-05T08:43:47.376Z,83.90
2019-04-05T08:46:16.109Z,83.50
2019-04-05T08:48:44.760Z,81.00
2019-04-05T08:51:13.277Z,79.20
2019-04-05T08:53:42.134Z,81.60
2019-04-05T08:56:10.727Z,82.60
2019-04-05T08:58:39.204Z,82.80
2019-04-05T09:01:07.984Z,82.30
2019-04-05T09:03:36.841Z,80.80
2019-04-05T09:06:05.378Z,80.60
2019-04-05T09:08:33.907Z,79.80
2019-04-05T09:11:02.470Z,79.20
2019-04-05T09:13:30.898Z,78.40
2019-04-05T09:15:59.338Z,78.90
2019-04-05T09:18:27.835Z,78.40
2019-04-05T09:20:59.199Z,76.80
2019-04-05T09:23:27.655Z,77.60
2019-04-05T09:25:56.433Z,77.80
2019-04-05T09:28:24.883Z,77.10
2019-04-05T09:30:53.323Z,75.90
2019-04-05T09:33:21.813Z,74.30
2019-04-05T09:35:50.575Z,73.90
2019-04-05T09:38:19.037Z,72.90
2019-04-05T09:40:47.517Z,71.90
2019-04-05T09:43:15.956Z,72.90
2019-04-05T09:45:44.430Z,72.90
2019-04-05T09:48:12.944Z,72.70
2019-04-05T09:50:41.411Z,69.80
2019-04-05T09:53:09.861Z,71.10
2019-04-05T09:55:38.367Z,69.50
2019-04-05T09:58:09.814Z,71.00
2019-04-05T10:00:37.011Z,70.60
2019-04-05T10:03:05.457Z,70.70
2019-04-05T10:05:33.907Z,68.80
2019-04-05T10:08:02.342Z,68.30
2019-04-05T10:10:30.835Z,68.50
2019-04-05T10:12:59.271Z,68.80
2019-04-05T10:15:27.776Z,70.00
2019-04-05T10:17:56.242Z,68.90
2019-04-05T10:20:24.688Z,66.50
2019-04-05T10:22:53.139Z,66.00
2019-04-05T10:25:21.608Z,66.70
2019-04-05T10:27:50.058Z,67.10
2019-04-05T10:30:20.324Z,67.20
2019-04-05T10:32:48.794Z,67.80
2019-04-05T10:35:17.235Z,66.90
2019-04-05T10:37:45.712Z,67.70
2019-04-05T10:40:14.723Z,67.00
2019-04-05T10:42:43.191Z,67.00
2019-04-05T10:45:13.566Z,64.60
2019-04-05T10:47:42.399Z,64.90
2019-04-05T10:50:13.799Z,65.20
2019-04-05T10:52:43.199Z,64.30
2019-04-05T10:55:12.496Z,62.60
2019-04-05T10:57:40.967Z,63.50
2019-04-05T11:00:15.608Z,64.00
2019-04-05T11:02:44.332Z,64.00
2019-04-05T11:05:13.411Z,62.90
2019-04-05T11:07:41.856Z,65.20
2019-04-05T11:10:10.844Z,62.80
2019-04-05T11:12:39.431Z,62.60
2019-04-05T11:15:09.622Z,64.30
2019-04-05T11:17:38.087Z,66.70
2019-04-05T11:20:20.811Z,66.90
2019-04-05T11:22:39.806Z,67.30
2019-04-05T11:25:09.098Z,67.90
2019-04-05T11:27:37.821Z,67.70
2019-04-05T11:30:08.623Z,68.50
2019-04-05T11:32:38.529Z,67.90
2019-04-05T11:35:08.086Z,69.40
2019-04-05T11:37:39.485Z,69.70
2019-04-05T11:40:09.832Z,68.20
2019-04-05T11:42:38.363Z,69.50
2019-04-05T11:45:10.012Z,70.80
2019-04-05T11:47:41.219Z,71.60
2019-04-05T11:50:11.662Z,71.20
2019-04-05T11:52:40.114Z,70.90
2019-04-05T11:55:09.033Z,71.10
2019-04-05T11:57:40.943Z,70.50
2019-04-05T12:00:13.847Z,70.90
2019-04-05T12:02:49.794Z,70.30
2019-04-05T12:05:20.381Z,70.30
2019-04-05T12:07:49.499Z,71.70
2019-04-05T12:10:19.438Z,72.30
2019-04-05T12:12:48.196Z,72.90
2019-04-05T12:15:16.773Z,70.80
2019-04-05T12:17:45.236Z,72.00
2019-04-05T12:20:14.642Z,71.90
2019-04-05T12:22:43.115Z,72.00
2019-04-05T12:25:13.251Z,72.10
2019-04-05T12:27:41.703Z,72.10
2019-04-05T12:30:13.032Z,73.50
2019-04-05T12:32:41.811Z,74.40
2019-04-05T12:35:10.776Z,73.90
2019-04-05T12:37:49.402Z,73.20
2019-04-05T12:40:11.149Z,73.90
2019-04-05T12:42:42.655Z,74.10
2019-04-05T12:45:14.711Z,73.60
2019-04-05T12:47:41.345Z,75.20
2019-04-05T12:50:10.140Z,75.80
2019-04-05T12:52:38.617Z,75.70
2019-04-05T12:55:08.403Z,74.80
2019-04-05T12:57:36.883Z,74.20
2019-04-05T13:00:13.181Z,74.30
2019-04-05T13:02:41.202Z,74.10
2019-04-05T13:05:10.103Z,74.40
2019-04-05T13:07:38.572Z,74.10
2019-04-05T13:10:07.587Z,73.50
2019-04-05T13:12:36.087Z,73.50
2019-04-05T13:15:12.896Z,73.70
2019-04-05T13:17:36.342Z,74.50
2019-04-05T13:20:07.551Z,74.60
2019-04-05T13:22:36.014Z,75.10
2019-04-05T13:25:10.727Z,75.00
2019-04-05T13:27:36.879Z,74.20
2019-04-05T13:30:08.253Z,73.90
2019-04-05T13:32:36.715Z,73.60
2019-04-05T13:35:06.619Z,73.40
2019-04-05T13:37:35.092Z,73.20
2019-04-05T13:40:06.354Z,73.80
2019-04-05T13:42:35.463Z,73.90
2019-04-05T13:45:07.782Z,73.20
2019-04-05T13:47:38.895Z,73.70
2019-04-05T13:50:11.016Z,74.80
2019-04-05T13:52:41.442Z,75.00
2019-04-05T13:55:11.337Z,74.20
2019-04-05T13:57:40.982Z,74.30
2019-04-05T14:00:12.192Z,74.80
2019-04-05T14:02:40.667Z,75.00
2019-04-05T14:05:09.600Z,74.80
2019-04-05T14:07:38.085Z,75.50
2019-04-05T14:10:10.632Z,75.90
2019-04-05T14:12:40.295Z,75.50
2019-04-05T14:15:11.374Z,75.60
2019-04-05T14:17:44.046Z,76.00
2019-04-05T14:20:11.244Z,75.50
2019-04-05T14:22:39.759Z,75.40
2019-04-05T14:25:09.614Z,76.50
2019-04-05T14:27:38.166Z,76.90
2019-04-05T14:30:07.905Z,76.70
2019-04-05T14:32:36.445Z,77.10
2019-04-05T14:35:08.143Z,76.90
2019-04-05T14:37:39.162Z,76.60
2019-04-05T14:40:08.326Z,77.10
2019-04-05T14:42:37.402Z,77.60
2019-04-05T14:45:07.809Z,78.10
2019-04-05T14:47:36.524Z,78.40
2019-04-05T14:50:08.944Z,79.30
2019-04-05T14:52:37.791Z,79.60
2019-04-05T14:55:06.969Z,79.80
2019-04-05T14:57:36.538Z,80.30
2019-04-05T15:00:07.451Z,80.70
2019-04-05T15:02:35.907Z,81.00
2019-04-05T15:05:07.002Z,81.20
2019-04-05T15:07:37.590Z,81.50
2019-04-05T15:10:06.585Z,81.70
2019-04-05T15:12:35.032Z,82.10
2019-04-05T15:15:04.877Z,82.50
2019-04-05T15:17:33.344Z,82.80
2019-04-05T15:20:04.763Z,83.10
2019-04-05T15:22:31.976Z,83.10
2019-04-05T15:25:01.086Z,83.10
2019-04-05T15:27:29.805Z,83.10
2019-04-05T15:29:58.243Z,83.40
2019-04-05T15:32:27.438Z,83.70
2019-04-05T15:34:56.534Z,84.20
2019-04-05T15:37:26.188Z,84.20
2019-04-05T15:39:54.659Z,83.60
2019-04-05T15:42:23.196Z,83.50
2019-04-05T15:44:51.715Z,83.20
2019-04-05T15:47:23.158Z,83.60
2019-04-05T15:49:52.033Z,83.80
2019-04-05T15:52:20.536Z,83.80
2019-04-05T15:54:48.963Z,83.70
2019-04-05T15:57:17.447Z,83.70
2019-04-05T15:59:45.891Z,83.70
2019-04-05T16:02:14.351Z,83.70
2019-04-05T16:04:43.256Z,84.00
2019-04-05T16:07:11.700Z,84.20
2019-04-05T16:09:40.146Z,84.50
2019-04-05T16:12:08.677Z,84.40
2019-04-05T16:14:37.124Z,84.80
2019-04-05T16:17:06.808Z,84.60
2019-04-05T16:19:35.258Z,84.60
2019-04-05T16:22:04.058Z,85.10
2019-04-05T16:24:32.518Z,85.30
2019-04-05T16:27:00.967Z,85.40
2019-04-05T16:29:29.495Z,85.50
2019-04-05T16:31:57.947Z,85.70
2019-04-05T16:34:26.403Z,85.70
2019-04-05T16:36:54.856Z,85.60
2019-04-05T16:39:23.311Z,85.40
2019-04-05T16:41:51.779Z,85.20
2019-04-05T16:44:20.233Z,85.20
2019-04-05T16:46:48.670Z,85.20
2019-04-05T16:49:17.119Z,85.30
2019-04-05T16:51:45.566Z,85.50
2019-04-05T16:54:14.017Z,85.40
2019-04-05T16:56:42.467Z,85.30
2019-04-05T16:59:10.919Z,85.50
2019-04-05T17:01:39.395Z,85.50
2019-04-05T17:04:07.927Z,85.60
2019-04-05T17:06:36.388Z,85.80
2019-04-05T17:09:07.655Z,85.90
2019-04-05T17:11:36.480Z,86.00
2019-04-05T17:14:05.585Z,85.90
2019-04-05T17:16:34.064Z,86.20
2019-04-05T17:19:02.869Z,86.00
2019-04-05T17:21:31.644Z,86.00
2019-04-05T17:24:00.143Z,86.20
2019-04-05T17:26:28.633Z,86.30
2019-04-05T17:28:57.144Z,86.40
2019-04-05T17:31:25.596Z,86.60
2019-04-05T17:33:54.049Z,86.60
2019-04-05T17:36:22.517Z,86.70
2019-04-05T17:38:50.956Z,86.80
2019-04-05T17:41:19.407Z,86.80
2019-04-05T17:43:47.852Z,87.00
2019-04-05T17:46:17.248Z,87.00
2019-04-05T17:48:45.704Z,87.00
2019-04-05T17:51:14.316Z,87.00
2019-04-05T17:53:42.777Z,87.00
2019-04-05T17:56:11.598Z,87.00
2019-04-05T17:58:40.078Z,87.00
2019-04-05T18:01:08.510Z,87.00
2019-04-05T18:03:36.976Z,87.10
2019-04-05T18:06:05.523Z,87.10
2019-04-05T18:08:34.007Z,87.20
2019-04-05T18:11:02.802Z,87.30
2019-04-05T18:13:31.293Z,87.40
2019-04-05T18:15:59.731Z,87.30
2019-04-05T18:18:28.535Z,87.30
2019-04-05T18:20:57.009Z,87.40
2019-04-05T18:23:25.876Z,87.60
2019-04-05T18:25:54.512Z,87.80
2019-04-05T18:28:22.975Z,87.90
2019-04-05T18:30:51.756Z,88.00
2019-04-05T18:33:20.213Z,88.00
2019-04-05T18:35:49.127Z,88.00
2019-04-05T18:38:17.568Z,88.00
2019-04-05T18:40:46.115Z,88.00
2019-04-05T18:43:14.571Z,88.10
2019-04-05T18:45:43.051Z,88.00
2019-04-05T18:48:11.505Z,88.10
2019-04-05T18:50:39.953Z,88.10
2019-04-05T18:53:08.473Z,88.20
2019-04-05T18:55:37.484Z,88.30
2019-04-05T18:58:06.343Z,88.60
2019-04-05T19:00:35.164Z,88.70
2019-04-05T19:03:03.635Z,88.90
2019-04-05T19:05:32.411Z,89.30
2019-04-05T19:08:01.045Z,89.50
2019-04-05T19:10:36.845Z,89.50
2019-04-05T19:12:59.772Z,89.70
2019-04-05T19:15:29.241Z,89.70
2019-04-05T19:17:57.780Z,89.60
2019-04-05T19:20:26.244Z,89.90
2019-04-05T19:22:54.707Z,89.80
2019-04-05T19:25:23.448Z,89.80
2019-04-05T19:27:51.920Z,89.80
2019-04-05T19:50:22.209Z,90.00
2019-04-05T19:52:50.717Z,90.00
2019-04-05T19:55:19.161Z,90.10
2019-04-05T19:57:47.987Z,90.20
2019-04-05T20:00:16.719Z,90.30
2019-04-05T20:02:45.160Z,90.50
2019-04-05T20:05:13.984Z,90.70
2019-04-05T20:07:42.434Z,90.60
2019-04-05T20:10:11.243Z,90.60
2019-04-05T20:12:40.741Z,90.60
2019-04-05T20:15:09.559Z,90.40
2019-04-05T20:17:38.010Z,90.40
2019-04-05T20:20:07.524Z,90.50
2019-04-05T20:22:36.264Z,90.40
2019-04-05T20:25:06.446Z,90.40
2019-04-05T20:27:34.896Z,90.40
2019-04-05T20:30:07.851Z,90.40
2019-04-05T20:32:36.287Z,90.30
2019-04-05T20:35:05.206Z,90.50
2019-04-05T20:37:33.630Z,90.60
2019-04-05T20:40:02.077Z,90.70
2019-04-05T20:42:30.535Z,90.60
2019-04-05T20:44:59.007Z,90.50
2019-04-05T20:47:27.462Z,90.30
2019-04-05T20:49:55.912Z,90.20
2019-04-05T20:52:24.355Z,90.10
2019-04-05T20:54:52.794Z,90.10
2019-04-05T20:57:21.260Z,89.90
2019-04-05T20:59:49.737Z,89.80
2019-04-05T21:02:18.189Z,89.80
2019-04-05T21:04:46.645Z,89.90
2019-04-05T21:07:15.074Z,90.00
2019-04-05T21:09:45.173Z,90.00
2019-04-05T21:12:13.852Z,90.00
2019-04-05T21:14:42.315Z,90.00
2019-04-05T21:17:10.748Z,90.10
2019-04-05T21:19:39.218Z,90.20
2019-04-05T21:22:07.655Z,90.20
2019-04-05T21:24:36.575Z,90.20
2019-04-05T21:27:05.468Z,90.20
2019-04-05T21:29:33.960Z,90.50
2019-04-05T21:32:02.395Z,90.70
2019-04-05T21:34:31.185Z,91.00
2019-04-05T21:36:59.995Z,91.00
2019-04-05T21:39:28.443Z,91.10
2019-04-05T21:41:56.900Z,91.10
2019-04-05T21:44:25.392Z,91.10
2019-04-05T21:46:53.830Z,91.00
2019-04-05T21:49:22.375Z,91.00
2019-04-05T21:51:50.835Z,91.00
2019-04-05T21:54:19.375Z,90.90
2019-04-05T21:56:47.854Z,90.90
2019-04-05T21:59:16.696Z,91.00
2019-04-05T22:01:45.495Z,91.00
2019-04-05T22:04:13.964Z,90.90
2019-04-05T22:06:42.753Z,91.00
2019-04-05T22:09:11.382Z,91.00
2019-04-05T22:11:39.832Z,91.10
2019-04-05T22:14:08.276Z,91.30
2019-04-05T22:16:37.086Z,91.50
2019-04-05T22:19:05.565Z,91.80
2019-04-05T22:21:34.040Z,91.80
2019-04-05T22:24:02.474Z,91.80
2019-04-05T22:26:30.947Z,91.80
2019-04-05T22:28:59.671Z,92.10
2019-04-05T22:31:28.225Z,92.30
2019-04-05T22:33:56.651Z,92.60
2019-04-05T22:36:25.113Z,92.70
2019-04-05T22:38:53.548Z,92.70
2019-04-05T22:41:22.391Z,92.70
2019-04-05T22:43:50.857Z,93.10
2019-04-05T22:46:19.315Z,93.20
2019-04-05T22:48:48.139Z,93.20
2019-04-05T22:51:16.600Z,93.30
2019-04-05T22:53:45.335Z,93.50
2019-04-05T22:56:13.827Z,93.70
2019-04-05T22:58:42.300Z,93.80
2019-04-05T23:01:11.158Z,94.00
2019-04-05T23:03:39.616Z,94.20
2019-04-05T23:06:08.092Z,94.40
2019-04-05T23:08:36.895Z,94.60
2019-04-05T23:11:05.660Z,94.70
2019-04-05T23:13:34.107Z,94.70
2019-04-05T23:16:02.569Z,94.90
2019-04-05T23:18:31.046Z,94.90
2019-04-05T23:20:59.899Z,94.80
2019-04-05T23:23:28.347Z,94.90
2019-04-05T23:25:56.815Z,95.00
2019-04-05T23:28:25.287Z,94.90
2019-04-05T23:30:54.129Z,95.10
2019-04-05T23:33:22.570Z,95.20
2019-04-05T23:35:51.052Z,95.40
2019-04-05T23:38:19.533Z,95.40
2019-04-05T23:40:47.986Z,95.50
2019-04-05T23:43:16.466Z,95.40
2019-04-05T23:45:44.905Z,95.50
2019-04-05T23:48:13.434Z,95.50
2019-04-05T23:50:41.996Z,95.40
2019-04-05T23:53:10.466Z,95.30
2019-04-05T23:55:38.912Z,95.40
2019-04-05T23:58:07.708Z,95.60
